createdAt,value
2019-03-06T00:00:41.403Z,1.47
2019-03-06T00:03:09.789Z,1.87
2019-03-06T00:05:38.291Z,2.20
2019-03-06T00:08:06.433Z,2.33
2019-03-06T00:10:34.641Z,2.27
2019-03-06T00:13:02.782Z,2.30
2019-03-06T00:15:31.199Z,2.30
2019-03-06T00:17:59.326Z,1.83
2019-03-06T00:20:27.472Z,1.77
2019-03-06T00:22:55.611Z,1.65
2019-03-06T00:25:23.761Z,2.00
2019-03-06T00:27:51.896Z,2.27
2019-03-06T00:30:20.117Z,2.12
2019-03-06T00:32:48.252Z,2.25
2019-03-06T00:35:18.038Z,3.00
2019-03-06T00:37:46.174Z,1.60
2019-03-06T00:40:32.254Z,2.10
2019-03-06T00:43:00.393Z,3.02
2019-03-06T00:45:28.563Z,1.90
2019-03-06T00:47:56.702Z,2.70
2019-03-06T00:50:25.187Z,2.00
2019-03-06T00:52:53.338Z,3.17
2019-03-06T00:55:21.486Z,2.02
2019-03-06T00:57:49.630Z,2.60
2019-03-06T01:00:20.238Z,3.07
2019-03-06T01:02:48.461Z,2.73
2019-03-06T01:05:16.567Z,2.70
2019-03-06T01:07:44.708Z,2.60
2019-03-06T01:10:13.321Z,2.45
2019-03-06T01:12:41.476Z,2.25
2019-03-06T01:15:14.201Z,2.25
2019-03-06T01:17:42.363Z,2.50
2019-03-06T01:20:11.366Z,2.47
2019-03-06T01:22:39.830Z,2.23
2019-03-06T01:25:18.780Z,2.40
2019-03-06T01:27:46.941Z,2.05
2019-03-06T01:30:16.722Z,2.25
2019-03-06T01:32:46.097Z,2.67
2019-03-06T01:35:24.919Z,2.83
2019-03-06T01:37:57.889Z,2.33
2019-03-06T01:40:27.922Z,2.75
2019-03-06T01:43:09.627Z,3.25
2019-03-06T01:45:37.841Z,2.25
2019-03-06T01:48:06.250Z,2.10
2019-03-06T01:50:34.399Z,2.00
2019-03-06T01:53:02.819Z,2.65
2019-03-06T01:55:31.206Z,2.00
2019-03-06T01:57:59.364Z,2.00
2019-03-06T02:00:27.553Z,2.55
2019-03-06T02:02:55.889Z,2.75
2019-03-06T02:05:24.450Z,2.30
2019-03-06T02:07:52.600Z,2.50
2019-03-06T02:10:20.998Z,2.30
2019-03-06T02:12:49.153Z,2.70
2019-03-06T02:15:18.036Z,2.90
2019-03-06T02:17:46.178Z,4.40
2019-03-06T02:20:17.603Z,4.00
2019-03-06T02:22:46.181Z,4.92
2019-03-06T02:25:14.742Z,3.52
2019-03-06T02:27:43.166Z,4.78
2019-03-06T02:30:15.901Z,4.87
2019-03-06T02:32:44.290Z,4.55
2019-03-06T02:35:12.445Z,5.17
2019-03-06T02:37:40.577Z,5.50
2019-03-06T02:40:09.575Z,4.85
2019-03-06T02:42:37.963Z,5.67
2019-03-06T02:45:07.655Z,5.15
2019-03-06T02:47:36.043Z,5.47
2019-03-06T02:50:05.063Z,5.97
2019-03-06T02:52:33.207Z,6.22
2019-03-06T02:55:01.611Z,5.80
2019-03-06T02:57:29.733Z,7.05
2019-03-06T02:59:59.790Z,7.10
2019-03-06T03:02:29.578Z,6.95
2019-03-06T03:04:59.627Z,7.10
2019-03-06T03:07:27.758Z,7.37
2019-03-06T03:09:55.911Z,7.03
2019-03-06T03:12:24.307Z,7.17
2019-03-06T03:14:52.453Z,6.25
2019-03-06T03:17:20.590Z,6.92
2019-03-06T03:19:49.023Z,6.72
2019-03-06T03:22:17.163Z,7.45
2019-03-06T03:24:45.323Z,7.28
2019-03-06T03:27:13.754Z,5.50
2019-03-06T03:29:41.936Z,6.25
2019-03-06T03:32:10.071Z,6.40
2019-03-06T03:34:38.240Z,6.60
2019-03-06T03:37:06.630Z,6.87
2019-03-06T03:39:35.030Z,7.20
2019-03-06T03:42:03.250Z,7.78
2019-03-06T03:44:31.404Z,7.08
2019-03-06T03:46:59.973Z,6.08
2019-03-06T03:49:28.147Z,6.12
2019-03-06T03:51:56.342Z,6.00
2019-03-06T03:54:24.758Z,5.90
2019-03-06T03:56:53.001Z,5.75
2019-03-06T03:59:21.118Z,7.08
2019-03-06T04:01:49.266Z,5.92
2019-03-06T04:04:17.408Z,6.80
2019-03-06T04:06:45.562Z,7.87
2019-03-06T04:09:13.966Z,7.25
2019-03-06T04:11:42.357Z,8.20
2019-03-06T04:14:10.665Z,8.78
2019-03-06T04:16:38.814Z,7.45
2019-03-06T04:19:07.214Z,8.80
2019-03-06T04:21:35.363Z,7.72
2019-03-06T04:24:03.519Z,7.85
2019-03-06T04:26:31.662Z,8.48
2019-03-06T04:29:00.222Z,8.45
2019-03-06T04:31:28.632Z,10.15
2019-03-06T04:33:57.034Z,8.60
2019-03-06T04:36:25.190Z,10.50
2019-03-06T04:38:53.330Z,10.15
2019-03-06T04:41:22.008Z,8.75
2019-03-06T04:43:50.385Z,9.23
2019-03-06T04:46:18.534Z,8.08
2019-03-06T04:48:46.920Z,8.43
2019-03-06T04:51:15.069Z,8.70
2019-03-06T04:53:43.206Z,7.80
2019-03-06T04:56:11.354Z,8.90
2019-03-06T04:58:39.489Z,7.35
2019-03-06T05:01:07.638Z,7.92
2019-03-06T05:03:35.794Z,7.80
2019-03-06T05:06:03.941Z,8.00
2019-03-06T05:08:32.258Z,9.95
2019-03-06T05:11:00.409Z,7.47
2019-03-06T05:13:28.546Z,8.88
2019-03-06T05:15:56.947Z,9.00
2019-03-06T05:18:26.976Z,7.50
2019-03-06T05:20:55.378Z,8.75
2019-03-06T05:23:23.515Z,7.85
2019-03-06T05:25:51.931Z,9.38
2019-03-06T05:28:20.326Z,7.40
2019-03-06T05:30:48.715Z,7.85
2019-03-06T05:33:17.186Z,8.88
2019-03-06T05:35:49.530Z,7.60
2019-03-06T05:38:28.466Z,7.17
2019-03-06T05:40:56.846Z,8.80
2019-03-06T05:43:25.251Z,9.55
2019-03-06T05:45:53.622Z,9.30
2019-03-06T05:48:21.777Z,9.38
2019-03-06T05:50:49.914Z,8.35
2019-03-06T05:53:18.066Z,7.42
2019-03-06T05:55:46.204Z,9.05
2019-03-06T05:58:14.611Z,8.40
2019-03-06T06:00:42.749Z,8.55
2019-03-06T06:03:10.900Z,7.95
2019-03-06T06:05:39.379Z,8.53
2019-03-06T06:08:07.770Z,7.95
2019-03-06T06:10:36.860Z,8.70
2019-03-06T06:13:05.146Z,7.50
2019-03-06T06:15:33.294Z,8.53
2019-03-06T06:18:01.442Z,8.33
2019-03-06T06:20:29.579Z,7.72
2019-03-06T06:23:02.788Z,7.60
2019-03-06T06:25:32.574Z,8.20
2019-03-06T06:28:00.738Z,7.05
2019-03-06T06:30:29.118Z,7.05
2019-03-06T06:32:57.263Z,7.47
2019-03-06T06:35:26.462Z,7.67
2019-03-06T06:37:54.762Z,7.80
2019-03-06T06:40:22.905Z,8.03
2019-03-06T06:42:51.314Z,7.65
2019-03-06T06:45:19.461Z,8.15
2019-03-06T06:48:06.474Z,6.95
2019-03-06T06:50:34.686Z,7.78
2019-03-06T06:53:21.316Z,7.45
2019-03-06T06:55:51.255Z,7.10
2019-03-06T06:58:31.558Z,7.28
2019-03-06T07:01:08.738Z,6.28
2019-03-06T07:03:42.739Z,6.50
2019-03-06T07:06:12.513Z,6.03
2019-03-06T07:08:42.534Z,6.28
2019-03-06T07:11:15.205Z,5.60
2019-03-06T07:13:47.939Z,6.15
2019-03-06T07:16:34.471Z,5.20
2019-03-06T07:19:04.257Z,4.90
2019-03-06T07:21:36.951Z,5.17
2019-03-06T07:24:09.501Z,5.27
2019-03-06T07:26:39.278Z,5.47
2019-03-06T07:29:12.280Z,4.05
2019-03-06T07:31:58.946Z,4.33
2019-03-06T07:34:28.984Z,3.15
2019-03-06T07:37:04.892Z,3.83
2019-03-06T07:39:34.919Z,2.45
2019-03-06T07:42:19.801Z,2.57
2019-03-06T07:45:22.944Z,3.37
2019-03-06T07:47:55.662Z,2.95
2019-03-06T07:50:34.635Z,2.47
2019-03-06T07:53:22.401Z,2.13
2019-03-06T07:55:52.187Z,1.93
2019-03-06T07:58:37.143Z,1.93
2019-03-06T08:01:05.542Z,2.07
2019-03-06T08:03:33.800Z,1.67
2019-03-06T08:06:01.970Z,1.80
2019-03-06T08:08:31.394Z,1.83
2019-03-06T08:11:00.572Z,1.60
2019-03-06T08:13:30.351Z,1.63
2019-03-06T08:16:00.137Z,1.40
2019-03-06T08:18:30.173Z,1.50
2019-03-06T08:21:12.162Z,1.63
2019-03-06T08:23:53.860Z,1.50
2019-03-06T08:26:22.006Z,1.60
2019-03-06T08:28:50.142Z,1.30
2019-03-06T08:31:32.093Z,1.30
2019-03-06T08:34:00.238Z,1.27
2019-03-06T08:36:28.436Z,1.57
2019-03-06T08:38:56.875Z,1.93
2019-03-06T08:41:25.023Z,1.50
2019-03-06T08:43:53.159Z,0.90
2019-03-06T08:46:38.263Z,1.00
2019-03-06T08:49:24.339Z,1.27
2019-03-06T08:51:56.793Z,0.73
2019-03-06T08:54:39.922Z,0.70
2019-03-06T08:57:09.891Z,1.00
2019-03-06T08:59:56.450Z,0.83
2019-03-06T09:02:35.261Z,0.70
2019-03-06T09:05:20.278Z,1.13
2019-03-06T09:07:50.065Z,0.80
2019-03-06T09:10:29.365Z,1.10
2019-03-06T09:12:59.190Z,1.03
2019-03-06T09:15:29.311Z,0.90
2019-03-06T09:18:08.784Z,0.73
2019-03-06T09:20:40.735Z,0.70
2019-03-06T09:23:11.733Z,0.80
2019-03-06T09:25:42.039Z,0.70
2019-03-06T09:28:12.115Z,0.77
2019-03-06T09:30:53.339Z,1.00
2019-03-06T09:46:23.454Z,1.60
2019-03-06T09:48:54.026Z,0.90
2019-03-06T09:51:30.245Z,0.93
2019-03-06T09:54:12.053Z,0.60
2019-03-06T09:56:42.141Z,0.80
2019-03-06T09:59:29.980Z,1.03
2019-03-06T10:02:06.833Z,0.80
2019-03-06T10:04:44.002Z,1.07
2019-03-06T10:07:22.958Z,0.80
2019-03-06T10:09:59.449Z,0.90
2019-03-06T10:12:35.443Z,0.93
2019-03-06T10:15:07.150Z,1.20
2019-03-06T10:17:46.353Z,0.90
2019-03-06T10:20:24.899Z,0.87
2019-03-06T10:22:48.965Z,0.80
2019-03-06T10:25:17.586Z,2.20
2019-03-06T10:27:46.175Z,0.90
2019-03-06T10:30:15.894Z,0.83
2019-03-06T10:32:44.603Z,0.70
2019-03-06T10:35:15.666Z,1.20
2019-03-06T10:37:44.167Z,0.93
2019-03-06T10:40:17.737Z,1.23
2019-03-06T10:42:46.299Z,0.80
2019-03-06T10:45:18.392Z,0.60
2019-03-06T10:47:47.519Z,0.70
2019-03-06T10:50:26.582Z,0.83
2019-03-06T10:52:51.697Z,0.70
2019-03-06T10:55:20.418Z,1.10
2019-03-06T10:57:49.147Z,1.00
2019-03-06T11:00:22.050Z,0.70
2019-03-06T11:02:51.090Z,1.00
2019-03-06T11:05:22.335Z,0.90
2019-03-06T11:07:51.050Z,0.60
2019-03-06T11:10:23.800Z,0.90
2019-03-06T11:12:50.136Z,0.90
2019-03-06T11:15:20.639Z,1.00
2019-03-06T11:17:49.527Z,1.07
2019-03-06T11:20:27.285Z,0.90
2019-03-06T11:22:57.250Z,0.80
2019-03-06T11:25:27.507Z,0.93
2019-03-06T11:27:56.180Z,1.00
2019-03-06T11:30:28.013Z,1.03
2019-03-06T11:32:57.375Z,0.80
2019-03-06T11:35:26.202Z,0.87
2019-03-06T11:37:54.847Z,1.10
2019-03-06T11:40:23.666Z,0.90
2019-03-06T11:42:52.187Z,1.30
2019-03-06T11:45:20.674Z,1.03
2019-03-06T11:47:49.386Z,1.23
2019-03-06T11:50:19.175Z,1.30
2019-03-06T11:52:47.739Z,1.57
2019-03-06T11:55:17.482Z,1.30
2019-03-06T11:57:46.051Z,1.50
2019-03-06T12:00:38.789Z,1.37
2019-03-06T12:03:07.614Z,1.30
2019-03-06T12:05:37.710Z,1.27
2019-03-06T12:08:09.574Z,1.10
2019-03-06T12:10:38.322Z,1.20
2019-03-06T12:13:09.509Z,1.47
2019-03-06T12:15:38.437Z,1.20
2019-03-06T12:18:07.118Z,1.33
2019-03-06T12:20:35.686Z,0.93
2019-03-06T12:23:05.309Z,1.20
2019-03-06T12:25:34.472Z,2.40
2019-03-06T12:28:03.326Z,1.63
2019-03-06T12:30:32.549Z,1.60
2019-03-06T12:33:01.218Z,1.10
2019-03-06T12:35:29.649Z,1.30
2019-03-06T12:37:58.058Z,1.37
2019-03-06T12:40:28.923Z,1.10
2019-03-06T12:42:57.584Z,1.03
2019-03-06T12:45:27.332Z,1.10
2019-03-06T12:48:01.710Z,1.00
2019-03-06T12:50:38.358Z,0.90
2019-03-06T12:53:07.130Z,1.20
2019-03-06T12:55:35.823Z,1.03
2019-03-06T12:58:05.884Z,0.90
2019-03-06T13:00:34.922Z,0.90
2019-03-06T13:03:03.645Z,1.07
2019-03-06T13:05:34.838Z,1.00
2019-03-06T13:08:03.264Z,1.00
2019-03-06T13:10:31.681Z,1.50
2019-03-06T13:13:00.485Z,1.20
2019-03-06T13:15:28.955Z,1.00
2019-03-06T13:17:57.518Z,1.07
2019-03-06T13:20:26.070Z,1.37
2019-03-06T13:22:54.930Z,0.90
2019-03-06T13:25:24.101Z,1.00
2019-03-06T13:27:54.931Z,1.20
2019-03-06T13:30:24.391Z,1.30
2019-03-06T13:33:10.734Z,1.00
2019-03-06T13:35:40.570Z,1.70
2019-03-06T13:38:09.067Z,1.80
2019-03-06T13:40:37.474Z,1.10
2019-03-06T13:43:05.974Z,1.10
2019-03-06T13:45:34.458Z,1.00
2019-03-06T13:48:02.882Z,1.47
2019-03-06T13:50:31.585Z,1.37
2019-03-06T13:53:00.058Z,1.07
2019-03-06T13:55:28.534Z,1.20
2019-03-06T13:57:57.404Z,1.10
2019-03-06T14:00:26.018Z,1.30
2019-03-06T14:02:54.448Z,1.13
2019-03-06T14:05:23.609Z,1.90
2019-03-06T14:07:56.229Z,1.43
2019-03-06T14:10:26.055Z,1.03
2019-03-06T14:12:54.793Z,1.00
2019-03-06T14:15:23.344Z,1.10
2019-03-06T14:17:52.058Z,2.40
2019-03-06T14:20:22.325Z,1.37
2019-03-06T14:22:51.523Z,1.20
2019-03-06T14:25:21.051Z,1.50
2019-03-06T14:27:49.722Z,3.33
2019-03-06T14:30:26.379Z,1.80
2019-03-06T14:32:54.840Z,1.40
2019-03-06T14:35:23.565Z,1.30
2019-03-06T14:37:52.317Z,1.27
2019-03-06T14:40:29.672Z,1.33
2019-03-06T14:42:59.090Z,2.43
2019-03-06T14:45:27.814Z,1.47
2019-03-06T14:47:56.098Z,1.43
2019-03-06T14:50:24.323Z,3.10
2019-03-06T14:52:52.593Z,1.50
2019-03-06T14:55:21.005Z,1.50
2019-03-06T14:57:49.150Z,1.37
2019-03-06T15:00:18.861Z,1.27
2019-03-06T15:02:47.433Z,1.50
2019-03-06T15:05:16.022Z,1.70
2019-03-06T15:07:44.179Z,1.10
2019-03-06T15:10:13.371Z,1.10
2019-03-06T15:12:41.647Z,1.40
2019-03-06T15:15:10.959Z,1.67
2019-03-06T15:17:39.135Z,1.73
2019-03-06T15:20:09.164Z,1.60
2019-03-06T15:22:38.846Z,1.77
2019-03-06T15:25:09.045Z,1.47
2019-03-06T15:27:37.257Z,1.43
2019-03-06T15:30:07.286Z,1.87
2019-03-06T15:32:35.512Z,1.50
2019-03-06T15:35:04.029Z,1.10
2019-03-06T15:37:32.342Z,1.63
2019-03-06T15:40:00.566Z,1.53
2019-03-06T15:42:28.716Z,1.43
2019-03-06T15:44:57.098Z,1.30
2019-03-06T15:47:33.392Z,1.70
2019-03-06T15:49:55.413Z,1.67
2019-03-06T15:52:23.887Z,1.50
2019-03-06T15:54:52.771Z,1.37
2019-03-06T15:57:21.182Z,1.57
2019-03-06T15:59:49.385Z,1.57
2019-03-06T16:02:17.587Z,2.20
2019-03-06T16:04:45.816Z,1.63
2019-03-06T16:07:14.340Z,2.10
2019-03-06T16:09:42.727Z,1.73
2019-03-06T16:12:12.324Z,1.37
2019-03-06T16:14:40.667Z,1.73
2019-03-06T16:17:09.118Z,2.43
2019-03-06T16:19:37.555Z,1.77
2019-03-06T16:22:06.254Z,1.60
2019-03-06T16:24:34.475Z,1.97
2019-03-06T16:27:02.645Z,1.50
2019-03-06T16:29:30.774Z,1.60
2019-03-06T16:31:58.916Z,1.63
2019-03-06T16:34:27.067Z,1.70
2019-03-06T16:36:55.544Z,1.93
2019-03-06T16:39:23.927Z,1.60
2019-03-06T16:41:52.082Z,1.60
2019-03-06T16:44:20.230Z,1.77
2019-03-06T16:46:48.466Z,2.43
2019-03-06T16:49:16.611Z,2.67
2019-03-06T16:51:44.782Z,2.73
2019-03-06T16:54:13.178Z,1.83
2019-03-06T16:56:41.439Z,2.10
2019-03-06T16:59:09.956Z,2.27
2019-03-06T17:01:38.218Z,2.40
2019-03-06T17:04:06.447Z,1.83
2019-03-06T17:06:34.699Z,2.17
2019-03-06T17:09:03.394Z,2.37
2019-03-06T17:11:31.862Z,2.20
2019-03-06T17:13:59.994Z,2.30
2019-03-06T17:16:28.142Z,2.43
2019-03-06T17:18:56.317Z,2.47
2019-03-06T17:21:24.522Z,2.60
2019-03-06T17:23:52.912Z,2.03
2019-03-06T17:26:21.069Z,3.17
2019-03-06T17:28:49.298Z,3.03
2019-03-06T17:31:17.442Z,2.17
2019-03-06T17:33:45.847Z,2.73
2019-03-06T17:36:14.083Z,2.50
2019-03-06T17:38:42.476Z,2.23
2019-03-06T17:41:11.054Z,4.70
2019-03-06T17:43:39.568Z,2.70
2019-03-06T17:46:08.440Z,2.90
2019-03-06T17:48:36.899Z,3.00
2019-03-06T17:51:05.375Z,2.53
2019-03-06T17:53:33.586Z,2.47
2019-03-06T17:56:02.015Z,2.60
2019-03-06T17:58:30.419Z,2.37
2019-03-06T18:01:00.471Z,2.07
2019-03-06T18:03:36.138Z,2.43
2019-03-06T18:06:04.285Z,3.10
2019-03-06T18:08:32.422Z,2.33
2019-03-06T18:11:00.599Z,2.50
2019-03-06T18:13:29.956Z,2.70
2019-03-06T18:15:58.369Z,2.43
2019-03-06T18:18:26.573Z,2.97
2019-03-06T18:20:54.746Z,2.40
2019-03-06T18:23:23.206Z,2.77
2019-03-06T18:25:51.504Z,2.57
2019-03-06T18:28:19.699Z,2.40
2019-03-06T18:30:47.849Z,2.40
2019-03-06T18:33:16.115Z,3.13
2019-03-06T18:35:44.675Z,2.67
2019-03-06T18:38:12.867Z,3.50
2019-03-06T18:40:41.049Z,3.00
2019-03-06T18:43:09.561Z,3.47
2019-03-06T18:45:37.714Z,4.00
2019-03-06T18:48:06.006Z,3.30
2019-03-06T18:50:34.378Z,3.20
2019-03-06T18:53:02.535Z,4.20
2019-03-06T18:55:30.955Z,3.67
2019-03-06T18:57:59.299Z,3.93
2019-03-06T19:00:28.183Z,4.33
2019-03-06T19:02:56.407Z,3.30
2019-03-06T19:05:24.608Z,3.40
2019-03-06T19:07:52.785Z,2.70
2019-03-06T19:10:22.474Z,2.87
2019-03-06T19:12:51.251Z,2.30
2019-03-06T19:15:21.078Z,3.30
2019-03-06T19:17:49.330Z,3.17
2019-03-06T19:20:18.392Z,3.43
2019-03-06T19:22:46.849Z,3.10
2019-03-06T19:25:15.450Z,3.23
2019-03-06T19:27:43.862Z,3.73
2019-03-06T19:30:15.870Z,3.23
2019-03-06T19:32:44.370Z,3.60
2019-03-06T19:35:12.534Z,3.00
2019-03-06T19:37:40.751Z,3.70
2019-03-06T19:40:09.654Z,3.40
2019-03-06T19:42:37.819Z,3.50
2019-03-06T19:45:07.864Z,3.27
2019-03-06T19:47:36.033Z,2.90
2019-03-06T19:50:05.573Z,2.93
2019-03-06T19:52:33.782Z,2.90
2019-03-06T19:55:02.000Z,3.13
2019-03-06T19:57:31.681Z,2.20
2019-03-06T19:59:59.993Z,2.80
2019-03-06T20:02:28.146Z,2.30
2019-03-06T20:04:56.310Z,1.77
2019-03-06T20:07:24.722Z,1.60
2019-03-06T20:09:53.218Z,1.70
2019-03-06T20:12:21.751Z,1.37
2019-03-06T20:14:49.887Z,1.70
2019-03-06T20:17:18.073Z,1.73
2019-03-06T20:19:49.235Z,1.60
2019-03-06T20:22:17.634Z,1.97
2019-03-06T20:24:46.072Z,1.40
2019-03-06T20:27:14.365Z,1.80
2019-03-06T20:29:42.499Z,1.70
2019-03-06T20:32:10.905Z,2.37
2019-03-06T20:34:39.053Z,1.83
2019-03-06T20:37:07.183Z,2.10
2019-03-06T20:39:35.339Z,2.00
2019-03-06T20:42:03.539Z,1.57
2019-03-06T20:44:31.678Z,1.80
2019-03-06T20:46:59.912Z,1.87
2019-03-06T20:49:28.354Z,1.73
2019-03-06T20:51:56.490Z,1.93
2019-03-06T20:54:24.634Z,2.10
2019-03-06T20:56:53.026Z,1.93
2019-03-06T20:59:21.183Z,2.30
2019-03-06T21:01:49.396Z,1.50
2019-03-06T21:04:17.878Z,1.83
2019-03-06T21:06:47.807Z,1.73
2019-03-06T21:09:17.107Z,2.33
2019-03-06T21:11:45.567Z,2.00
2019-03-06T21:14:13.987Z,1.87
2019-03-06T21:16:42.214Z,1.63
2019-03-06T21:19:10.686Z,2.67
2019-03-06T21:21:38.890Z,1.87
2019-03-06T21:24:07.033Z,1.93
2019-03-06T21:26:35.165Z,2.03
2019-03-06T21:29:03.331Z,1.90
2019-03-06T21:31:31.778Z,1.97
2019-03-06T21:33:59.926Z,1.90
2019-03-06T21:36:28.064Z,1.60
2019-03-06T21:38:56.205Z,1.40
2019-03-06T21:41:24.418Z,1.40
2019-03-06T21:43:52.564Z,1.80
2019-03-06T21:46:21.042Z,1.80
2019-03-06T21:48:49.282Z,1.90
2019-03-06T21:51:17.651Z,2.17
2019-03-06T21:53:45.932Z,2.10
2019-03-06T21:56:14.132Z,1.80
2019-03-06T21:58:42.536Z,1.50
2019-03-06T22:01:11.078Z,1.47
2019-03-06T22:03:39.493Z,1.90
2019-03-06T22:06:07.701Z,1.40
2019-03-06T22:08:36.079Z,1.40
2019-03-06T22:11:04.470Z,2.00
2019-03-06T22:13:32.710Z,1.87
2019-03-06T22:16:00.905Z,1.80
2019-03-06T22:18:29.031Z,2.17
2019-03-06T22:20:57.174Z,2.43
2019-03-06T22:23:25.384Z,1.70
2019-03-06T22:25:53.521Z,3.20
2019-03-06T22:28:21.898Z,1.77
2019-03-06T22:30:50.042Z,2.17
2019-03-06T22:33:18.393Z,2.43
2019-03-06T22:35:46.571Z,1.60
2019-03-06T22:38:15.048Z,2.47
2019-03-06T22:40:43.260Z,2.33
2019-03-06T22:43:11.397Z,1.90
2019-03-06T22:45:39.537Z,1.70
2019-03-06T22:48:07.923Z,1.70
2019-03-06T22:50:36.152Z,2.07
2019-03-06T22:53:04.652Z,1.70
2019-03-06T22:55:32.866Z,2.07
2019-03-06T22:58:02.564Z,2.47
2019-03-06T23:00:36.793Z,2.20
2019-03-06T23:03:05.461Z,2.30
2019-03-06T23:05:35.221Z,2.23
2019-03-06T23:08:03.351Z,1.73
2019-03-06T23:10:31.483Z,2.27
2019-03-06T23:12:59.878Z,2.30
2019-03-06T23:15:28.109Z,2.37
2019-03-06T23:17:57.455Z,2.40
2019-03-06T23:20:25.630Z,2.50
2019-03-06T23:22:53.772Z,2.30
2019-03-06T23:25:21.907Z,2.30
2019-03-06T23:27:50.129Z,1.83
2019-03-06T23:30:18.357Z,2.23
2019-03-06T23:32:46.801Z,1.80
2019-03-06T23:35:15.001Z,1.83
2019-03-06T23:37:43.169Z,1.80
2019-03-06T23:40:11.729Z,2.50
2019-03-06T23:42:40.012Z,1.70
2019-03-06T23:45:09.670Z,1.50
2019-03-06T23:47:38.259Z,1.80
2019-03-06T23:50:07.765Z,1.93
2019-03-06T23:52:40.497Z,2.60
2019-03-06T23:55:08.909Z,2.10
2019-03-06T23:57:37.046Z,1.87
